Time;durP1;ratioP1;P1;durP2;ratioP2;P2;SDS_P1;SDS_P2;PMS_P1;PMS_P2;Temp;Humidity;BMP_temperature;BMP_pressure;BME280_temperature;BME280_humidity;BME280_pressure;Samples;Min_cycle;Max_cycle;Signal;HPM_P1;HPM_P2
2022/04/22 04:04:28;;;;;;;22.60;15.05;;;;;;;6.18;75.72;99640.81;5540717;32;206941;-87
2022/04/22 04:07:31;;;;;;;23.17;14.23;;;;;;;6.18;75.72;99640.81;5546108;32;33978;-88
2022/04/22 04:16:58;;;;;;;21.83;13.85;;;;;;;5.78;76.47;99643.34;5546083;32;34240;-88
2022/04/22 04:23:25;;;;;;;23.33;14.32;;;;;;;5.95;76.06;99640.03;5547057;32;34334;-88
2022/04/22 04:26:28;;;;;;;23.05;13.98;;;;;;;6.04;75.85;99644.91;5545899;32;34446;-87
2022/04/22 04:29:31;;;;;;;20.98;14.27;;;;;;;6.14;75.34;99644.53;5546029;32;33676;-87
2022/04/22 04:32:34;;;;;;;22.58;14.55;;;;;;;6.23;76.32;99652.03;5544139;32;33504;-87
2022/04/22 04:35:38;;;;;;;21.73;14.65;;;;;;;6.37;75.83;99632.97;5553056;32;33980;-87
2022/04/22 04:38:43;;;;;;;23.48;14.98;;;;;;;6.57;74.34;99633.88;5531382;32;33327;-87
2022/04/22 04:41:45;;;;;;;21.58;14.70;;;;;;;6.54;74.54;99637.50;5545530;32;33844;-87
2022/04/22 04:44:48;;;;;;;24.52;15.35;;;;;;;6.60;74.31;99647.75;5531487;32;33411;-86
2022/04/22 04:47:51;;;;;;;20.40;15.02;;;;;;;6.73;73.24;99648.06;5537651;32;32324;-87
2022/04/22 04:50:55;;;;;;;22.17;14.82;;;;;;;6.71;74.13;99647.28;5552778;32;34326;-87
2022/04/22 04:53:57;;;;;;;21.48;14.57;;;;;;;6.75;74.36;99642.72;5555831;26;34087;-86
2022/04/22 04:57:01;;;;;;;21.52;15.55;;;;;;;6.80;74.84;99655.69;5546260;32;34244;-87
2022/04/22 05:00:05;;;;;;;20.10;14.35;;;;;;;6.95;73.01;99644.44;5531627;32;33928;-87
2022/04/22 05:03:09;;;;;;;23.80;15.27;;;;;;;7.45;70.90;99644.75;5545450;32;33920;-88
2022/04/22 05:06:12;;;;;;;20.92;14.00;;;;;;;7.40;71.13;99652.88;5545518;32;35093;-88
2022/04/22 05:09:16;;;;;;;23.45;14.30;;;;;;;7.54;70.75;99654.88;5538275;32;33787;-88
2022/04/22 05:12:18;;;;;;;20.02;14.25;;;;;;;7.46;70.36;99646.47;5555349;32;33759;-88
2022/04/22 05:15:22;;;;;;;25.60;15.73;;;;;;;7.40;70.77;99641.50;5547809;32;34994;-88
2022/04/22 05:18:25;;;;;;;24.55;15.65;;;;;;;7.73;69.45;99642.53;5588510;26;35179;-87
2022/04/22 05:21:28;;;;;;;20.67;14.95;;;;;;;7.84;68.17;99649.94;5565575;32;34132;-87
2022/04/22 05:24:31;;;;;;;24.50;14.93;;;;;;;7.68;68.78;99661.25;5565728;32;35298;-88
2022/04/22 05:27:35;;;;;;;22.23;15.60;;;;;;;7.51;69.87;99659.44;5567234;32;35288;-88
2022/04/22 05:34:00;;;;;;;20.40;15.55;;;;;;;7.70;68.67;99669.97;5534720;32;32532;-87
2022/04/22 05:37:02;;;;;;;22.25;15.43;;;;;;;7.62;69.90;99680.03;5535376;32;33850;-88
2022/04/22 05:40:06;;;;;;;23.65;15.68;;;;;;;7.54;69.16;99678.63;5534204;32;34790;-89
2022/04/22 05:43:10;;;;;;;21.77;15.23;;;;;;;7.43;70.04;99675.63;5538923;32;33785;-88
2022/04/22 05:46:14;;;;;;;25.15;15.75;;;;;;;7.41;70.29;99664.31;5560142;26;33750;-88
2022/04/22 05:53:02;;;;;;;21.25;14.98;;;;;;;7.48;69.50;99655.16;4131393;26;20350;-89
2022/04/22 06:03:37;;;;;;;21.70;14.87;;;;;;;7.59;68.94;99644.06;2462091;30;20099;-89
2022/04/22 06:06:40;;;;;;;20.98;15.20;;;;;;;7.73;67.77;99635.47;5535671;32;34007;-89
2022/04/22 06:13:55;;;;;;;21.17;14.18;;;;;;;7.94;68.02;99635.31;4912846;30;20103;-89
2022/04/22 06:16:58;;;;;;;25.40;14.75;;;;;;;8.08;68.25;99655.75;5508690;32;33692;-89
2022/04/22 06:20:01;;;;;;;28.05;15.05;;;;;;;8.47;65.96;99659.06;5546825;26;33165;-89
2022/04/22 06:23:04;;;;;;;21.75;14.50;;;;;;;8.14;67.72;99641.38;5490342;32;32127;-89
2022/04/22 06:26:07;;;;;;;21.37;15.02;;;;;;;7.99;69.11;99649.16;5503750;32;32708;-87
2022/04/22 06:29:10;;;;;;;19.52;13.57;;;;;;;8.13;66.14;99645.81;5492403;32;34521;-87
2022/04/22 06:32:14;;;;;;;20.85;14.45;;;;;;;8.48;66.39;99639.62;5492705;32;34123;-87
2022/04/22 06:35:18;;;;;;;19.20;13.75;;;;;;;8.27;65.47;99637.19;5491613;32;32566;-87
2022/04/22 06:38:21;;;;;;;19.42;14.18;;;;;;;8.15;65.47;99624.59;5492875;32;34171;-88
2022/04/22 06:48:19;;;;;;;21.30;14.20;;;;;;;8.62;63.69;99628.34;5507387;32;32415;-87
2022/04/22 06:51:42;;;;;;;23.12;14.73;;;;;;;8.69;63.78;99615.66;5494951;32;35258;-92
2022/04/22 06:54:45;;;;;;;22.83;14.45;;;;;;;8.86;62.88;99612.09;5489422;32;33089;-88
2022/04/22 06:57:49;;;;;;;20.20;14.23;;;;;;;8.98;61.65;99606.13;5491144;32;32992;-85
2022/04/22 07:00:54;;;;;;;20.23;14.32;;;;;;;9.11;63.27;99614.22;5491050;32;34558;-88
2022/04/22 07:03:58;;;;;;;22.90;14.20;;;;;;;9.21;62.30;99606.59;5478363;32;32353;-88
2022/04/22 07:07:03;;;;;;;22.95;14.05;;;;;;;9.42;61.06;99603.69;5490237;32;34438;-87
2022/04/22 07:10:06;;;;;;;60.92;18.85;;;;;;;9.50;61.18;99604.09;5492098;32;34003;-89
2022/04/22 07:13:11;;;;;;;27.62;14.55;;;;;;;9.25;62.19;99615.25;5492068;32;32447;-87
2022/04/22 07:16:17;;;;;;;22.10;14.55;;;;;;;9.06;61.99;99612.78;5492796;32;32628;-88
2022/04/22 07:19:21;;;;;;;20.60;14.45;;;;;;;9.02;62.27;99609.44;5492091;32;32395;-88
2022/04/22 07:22:24;;;;;;;20.30;13.30;;;;;;;8.93;62.68;99605.53;5498972;32;33667;-88
2022/04/22 07:25:28;;;;;;;21.92;14.70;;;;;;;9.10;62.23;99607.22;5504947;32;32333;-88
2022/04/22 07:28:32;;;;;;;18.65;14.05;;;;;;;9.16;62.38;99621.91;5491564;32;33947;-88
2022/04/22 07:31:35;;;;;;;22.23;13.65;;;;;;;8.95;62.74;99626.59;5492415;32;34107;-87
2022/04/22 07:34:38;;;;;;;28.02;14.77;;;;;;;9.35;63.68;99624.34;5490558;32;33218;-87
2022/04/22 07:37:46;;;;;;;30.67;13.98;;;;;;;9.19;61.84;99623.53;5492520;32;33621;-87
2022/04/22 07:40:50;;;;;;;23.15;14.90;;;;;;;9.31;61.70;99617.56;5493744;32;33745;-87
2022/04/22 07:47:16;;;;;;;20.65;14.70;;;;;;;9.23;63.13;99617.12;5499416;32;33342;-86
2022/04/22 07:50:19;;;;;;;21.45;14.30;;;;;;;9.39;63.31;99615.31;5493000;32;33586;-86
2022/04/22 07:53:22;;;;;;;23.45;14.02;;;;;;;9.72;62.27;99610.81;5490761;32;32337;-86
2022/04/22 07:56:25;;;;;;;19.73;14.25;;;;;;;9.82;62.45;99611.13;5492325;32;34327;-85
2022/04/22 07:59:30;;;;;;;21.75;15.27;;;;;;;10.13;63.23;99608.44;5478504;32;35233;-86
2022/04/22 08:02:33;;;;;;;23.90;15.18;;;;;;;10.28;61.52;99598.69;5493551;32;34962;-86
2022/04/22 08:05:40;;;;;;;30.17;14.82;;;;;;;10.14;63.90;99607.47;5491492;32;35156;-88
2022/04/22 08:08:42;;;;;;;23.83;15.48;;;;;;;10.13;63.25;99603.13;5490714;32;33840;-87
2022/04/22 08:11:45;;;;;;;28.62;16.90;;;;;;;10.06;64.62;99600.00;5494797;32;33724;-89
2022/04/22 08:14:48;;;;;;;27.77;15.48;;;;;;;10.06;65.65;99600.00;5493303;32;35420;-88
2022/04/22 08:17:51;;;;;;;26.17;15.73;;;;;;;10.07;65.95;99588.47;5491719;32;35115;-90
2022/04/22 08:20:54;;;;;;;22.10;16.02;;;;;;;10.03;66.45;99593.09;5492000;32;32874;-88
2022/04/22 08:23:56;;;;;;;27.85;16.10;;;;;;;9.88;67.82;99592.22;5491268;32;32813;-88
2022/04/22 08:27:01;;;;;;;21.75;15.10;;;;;;;10.06;67.54;99592.06;5491299;32;32403;-89
2022/04/22 08:30:06;;;;;;;23.42;16.30;;;;;;;10.10;67.88;99577.66;5491950;32;34511;-90
2022/04/22 08:36:48;;;;;;;23.67;16.30;;;;;;;9.78;70.89;99580.44;5526204;26;20420;-89
2022/04/22 08:39:50;;;;;;;22.80;16.42;;;;;;;9.70;74.00;99567.66;5492477;32;33842;-89
2022/04/22 08:43:01;;;;;;;26.52;15.98;;;;;;;9.71;74.03;99580.81;5493226;32;36038;-90
2022/04/22 08:49:58;;;;;;;27.40;17.02;;;;;;;9.71;74.80;99583.47;5547377;26;34148;-89
2022/04/22 08:53:07;;;;;;;21.45;16.60;;;;;;;9.92;76.68;99572.53;5566277;26;34318;-89
2022/04/22 08:56:11;;;;;;;22.52;17.25;;;;;;;9.89;81.14;99564.78;5511778;32;32920;-89
2022/04/22 08:59:13;;;;;;;27.05;17.87;;;;;;;9.73;83.14;99559.53;5503281;32;34416;-90
2022/04/22 09:02:18;;;;;;;23.48;16.20;;;;;;;9.54;85.50;99552.69;5495012;32;33230;-88
2022/04/22 09:05:21;;;;;;;25.33;17.83;;;;;;;9.52;86.73;99549.28;5503271;32;34623;-88
2022/04/22 09:08:25;;;;;;;21.87;16.98;;;;;;;9.59;90.10;99563.00;5514710;32;34021;-87
2022/04/22 09:11:29;;;;;;;28.30;18.67;;;;;;;9.68;86.66;99564.25;5527956;32;33370;-87
2022/04/22 09:14:34;;;;;;;26.20;17.75;;;;;;;9.82;88.53;99571.38;5512469;32;33931;-87
2022/04/22 09:17:38;;;;;;;27.90;18.45;;;;;;;9.52;90.17;99559.00;5525965;32;34796;-87
2022/04/22 09:20:40;;;;;;;25.05;18.15;;;;;;;9.63;89.73;99553.06;5515643;32;33849;-88
2022/04/22 09:23:47;;;;;;;24.23;17.65;;;;;;;9.47;90.76;99548.69;5515382;32;33771;-88
2022/04/22 09:27:06;;;;;;;27.17;19.20;;;;;;;9.50;92.19;99534.44;5531307;32;34707;-88
2022/04/22 09:30:12;;;;;;;23.98;19.23;;;;;;;9.56;92.91;99532.25;5533502;32;34608;-90
2022/04/22 09:33:15;;;;;;;25.73;18.60;;;;;;;9.37;93.03;99531.62;5520791;32;33974;-88
2022/04/22 09:43:11;;;;;;;26.60;19.90;;;;;;;8.65;97.08;99519.75;5523034;32;34477;-91
2022/04/22 09:46:33;;;;;;;25.60;20.17;;;;;;;8.50;97.02;99508.22;5528229;32;33211;-89
2022/04/22 09:49:39;;;;;;;;;;;;;;;8.47;98.67;99501.34;5569436;26;32330;-88
2022/04/22 09:52:46;;;;;;;26.23;20.50;;;;;;;8.40;98.62;99494.66;5512839;32;34878;-89
2022/04/22 09:55:54;;;;;;;27.67;20.58;;;;;;;8.46;99.27;99501.41;5513318;32;35448;-89
2022/04/22 09:58:57;;;;;;;28.17;20.83;;;;;;;8.64;98.09;99502.19;5514543;32;33869;-89
2022/04/22 10:02:00;;;;;;;25.65;18.98;;;;;;;8.74;98.63;99500.75;5516687;32;34121;-88
2022/04/22 10:05:11;;;;;;;27.80;20.62;;;;;;;8.94;94.60;99500.59;5518916;32;33154;-89
2022/04/22 10:08:16;;;;;;;27.17;21.02;;;;;;;9.19;93.10;99502.66;5520374;32;32661;-88
2022/04/22 10:11:22;;;;;;;28.77;21.17;;;;;;;9.10;94.03;99505.84;5585484;26;33261;-89
2022/04/22 10:18:26;;;;;;;28.40;20.10;;;;;;;9.20;93.99;99511.44;831729;30;20969;-88
2022/04/22 10:21:29;;;;;;;27.08;20.33;;;;;;;9.22;93.94;99509.56;5458959;32;32127;-88
2022/04/22 10:24:32;;;;;;;25.17;19.20;;;;;;;9.26;96.48;99495.22;5456734;32;35149;-88
2022/04/22 10:27:37;;;;;;;25.48;19.33;;;;;;;9.34;93.07;99482.37;5465224;32;34094;-88
2022/04/22 10:30:42;;;;;;;25.35;19.37;;;;;;;9.41;93.73;99483.72;5516125;27;34635;-88
2022/04/22 10:33:46;;;;;;;24.67;19.02;;;;;;;9.89;90.97;99472.06;5519125;26;32730;-88
2022/04/22 10:36:56;;;;;;;23.77;18.87;;;;;;;10.41;90.35;99467.06;5474064;32;34784;-88
2022/04/22 10:39:58;;;;;;;27.75;19.55;;;;;;;10.68;89.08;99468.09;5458363;32;33660;-88
2022/04/22 10:50:25;;;;;;;26.80;19.17;;;;;;;10.50;89.80;99470.97;5466242;27;33018;-87
2022/04/22 10:53:33;;;;;;;26.42;18.62;;;;;;;10.31;91.58;99465.97;5475546;32;33839;-87
2022/04/22 10:56:39;;;;;;;;;;;;;;;10.24;90.92;99469.03;5471826;32;34192;-89
2022/04/22 11:03:58;;;;;;;22.33;16.83;;;;;;;10.22;87.56;99452.34;876578;27;20427;-87
2022/04/22 11:25:46;;;;;;;21.50;16.87;;;;;;;10.88;81.72;99421.69;3985344;26;20116;-88
2022/04/22 11:28:49;;;;;;;21.23;15.63;;;;;;;11.02;79.86;99424.28;5456358;32;32742;-89
2022/04/22 11:31:57;;;;;;;18.90;15.40;;;;;;;11.05;76.98;99425.88;5450418;32;33693;-87
2022/04/22 11:35:19;;;;;;;18.62;15.73;;;;;;;11.07;76.13;99429.28;5458807;32;35634;-88
2022/04/22 11:38:21;;;;;;;22.83;17.00;;;;;;;11.35;76.75;99418.59;5474112;32;33884;-86
2022/04/22 11:41:28;;;;;;;17.95;15.10;;;;;;;11.72;75.38;99410.75;5471414;32;34638;-87
2022/04/22 11:44:39;;;;;;;18.42;14.98;;;;;;;11.78;70.15;99407.66;5451147;32;34174;-89
2022/04/22 11:47:43;;;;;;;17.65;14.20;;;;;;;12.18;70.01;99409.31;5450449;32;33564;-87
2022/04/22 11:54:31;;;;;;;18.37;14.02;;;;;;;12.75;63.66;99396.31;4941966;26;20612;-87
2022/04/22 11:57:38;;;;;;;15.27;12.85;;;;;;;12.94;61.57;99397.59;5447765;32;33957;-86
2022/04/22 12:10:55;;;;;;;19.27;12.60;;;;;;;12.33;59.39;99385.22;5431253;32;33965;-88
2022/04/22 12:13:58;;;;;;;14.73;11.82;;;;;;;12.61;59.74;99378.72;5434734;32;33607;-88
2022/04/22 12:17:04;;;;;;;13.90;11.95;;;;;;;12.63;58.31;99371.44;5443371;32;34019;-89
2022/04/22 12:20:09;;;;;;;14.60;12.10;;;;;;;12.59;56.92;99369.16;5443616;32;34306;-89
2022/04/22 12:23:14;;;;;;;12.98;11.02;;;;;;;12.61;56.99;99362.75;5435091;32;33455;-89
2022/04/22 12:26:21;;;;;;;12.93;10.23;;;;;;;12.59;55.47;99356.72;5432221;32;33478;-91
2022/04/22 12:29:24;;;;;;;13.55;9.93;;;;;;;12.62;54.59;99352.97;5447626;32;34877;-87
2022/04/22 12:32:27;;;;;;;12.05;10.25;;;;;;;12.60;53.26;99353.06;5446270;32;34025;-87
2022/04/22 12:35:30;;;;;;;12.15;10.18;;;;;;;12.73;53.90;99337.03;5442872;32;35371;-88
2022/04/22 12:38:35;;;;;;;12.93;10.80;;;;;;;12.86;53.05;99325.44;5433060;32;33638;-88
2022/04/22 12:41:45;;;;;;;15.63;10.73;;;;;;;13.04;52.54;99336.50;5440353;32;35212;-88
2022/04/22 12:52:36;;;;;;;13.18;9.43;;;;;;;12.93;49.34;99334.69;5437036;32;33517;-87
2022/04/22 12:55:40;;;;;;;11.43;8.55;;;;;;;12.95;50.13;99338.06;5450732;32;33854;-87
2022/04/22 12:58:51;;;;;;;15.23;8.82;;;;;;;12.85;49.95;99326.41;5457143;32;34067;-86
2022/04/22 13:01:54;;;;;;;10.18;9.07;;;;;;;12.80;49.98;99317.00;5440903;32;33882;-87
2022/04/22 13:05:01;;;;;;;13.25;9.98;;;;;;;12.87;50.77;99301.38;5455284;32;33119;-87
2022/04/22 13:08:09;;;;;;;11.43;9.43;;;;;;;12.96;50.81;99313.13;5451000;32;34332;-86
2022/04/22 13:11:13;;;;;;;12.43;9.60;;;;;;;12.86;49.20;99313.00;5441255;32;35022;-88
2022/04/22 13:14:17;;;;;;;13.13;9.63;;;;;;;12.59;50.21;99306.16;5450221;32;35064;-89
2022/04/22 13:21:01;;;;;;;11.12;8.95;;;;;;;12.64;49.26;99292.50;5471488;32;20117;-88
2022/04/22 13:24:04;;;;;;;10.52;8.88;;;;;;;12.84;49.89;99295.44;5457696;32;35007;-87
2022/04/22 13:27:07;;;;;;;11.15;9.05;;;;;;;13.01;48.61;99295.00;5460886;32;34448;-86
2022/04/22 13:30:11;;;;;;;11.10;8.80;;;;;;;12.88;48.59;99287.09;5444811;32;33691;-86
2022/04/22 13:33:14;;;;;;;11.30;8.93;;;;;;;12.91;48.39;99289.53;5459914;32;33849;-86
2022/04/22 13:36:27;;;;;;;12.35;9.15;;;;;;;12.86;48.12;99282.84;5546956;26;33936;-85
2022/04/22 13:39:49;;;;;;;11.50;8.82;;;;;;;13.13;49.77;99282.53;5489633;32;34146;-86
2022/04/22 13:42:52;;;;;;;12.98;9.25;;;;;;;13.11;47.55;99283.63;5486044;32;35356;-86
2022/04/22 13:52:41;;;;;;;10.00;8.68;;;;;;;12.72;48.61;99286.59;5445472;32;33521;-86
2022/04/22 13:55:43;;;;;;;11.38;9.70;;;;;;;12.72;48.62;99278.63;5448469;32;33025;-86
2022/04/22 13:58:46;;;;;;;12.77;9.60;;;;;;;12.60;49.24;99281.25;5466050;32;34307;-86
2022/04/22 14:01:52;;;;;;;13.43;9.95;;;;;;;12.48;48.88;99285.66;5484021;32;34267;-87
2022/04/22 14:05:11;;;;;;;12.80;10.48;;;;;;;12.42;49.71;99275.50;5462314;32;32775;-87
2022/04/22 14:08:14;;;;;;;11.25;9.25;;;;;;;12.38;50.27;99274.88;5442707;32;32856;-85
2022/04/22 14:11:17;;;;;;;15.30;10.50;;;;;;;12.38;51.31;99266.06;5460876;32;32532;-87
2022/04/22 14:14:22;;;;;;;13.50;11.02;;;;;;;12.38;51.47;99272.22;5463121;32;33204;-86
2022/04/22 14:17:24;;;;;;;13.75;10.10;;;;;;;12.40;53.80;99272.97;5452674;32;33750;-88
2022/04/22 14:20:28;;;;;;;12.30;10.52;;;;;;;12.34;53.21;99270.78;5473525;32;34570;-86
2022/04/22 14:23:31;;;;;;;14.05;10.88;;;;;;;12.42;52.17;99258.69;5472611;32;35001;-86
2022/04/22 14:26:35;;;;;;;14.90;10.88;;;;;;;12.50;52.55;99266.94;5451385;32;32341;-86
2022/04/22 14:29:59;;;;;;;13.52;9.98;;;;;;;12.53;51.37;99267.56;5450941;32;33090;-87
2022/04/22 14:33:03;;;;;;;13.55;10.50;;;;;;;12.45;51.83;99264.63;5449197;32;33379;-86
2022/04/22 14:36:06;;;;;;;13.07;10.23;;;;;;;12.43;51.31;99263.06;5445931;32;33528;-88
2022/04/22 14:39:10;;;;;;;13.90;10.55;;;;;;;12.49;51.24;99265.25;5458700;32;34328;-86
2022/04/22 14:42:13;;;;;;;13.75;11.30;;;;;;;12.44;51.97;99272.72;5457262;32;33600;-86
2022/04/22 14:45:16;;;;;;;13.30;10.35;;;;;;;12.49;51.55;99254.59;5463317;32;33912;-86
2022/04/22 14:48:26;;;;;;;14.63;10.15;;;;;;;12.49;51.29;99260.78;5461651;32;34009;-86
2022/04/22 14:51:29;;;;;;;16.23;10.07;;;;;;;12.57;51.83;99262.00;5461164;32;33788;-86
2022/04/22 14:54:33;;;;;;;12.93;9.85;;;;;;;12.72;52.24;99260.81;5456895;32;34080;-86
2022/04/22 14:57:38;;;;;;;13.40;9.85;;;;;;;12.77;51.78;99255.16;5458206;32;33554;-87
2022/04/22 15:00:41;;;;;;;13.32;10.10;;;;;;;12.65;51.71;99260.47;5461567;32;32355;-87
2022/04/22 15:03:44;;;;;;;12.48;9.65;;;;;;;12.55;51.44;99254.13;5478475;32;33976;-86
2022/04/22 15:06:47;;;;;;;12.95;10.07;;;;;;;12.47;50.86;99253.87;5479689;32;34160;-86
2022/04/22 15:09:56;;;;;;;14.10;10.40;;;;;;;12.47;51.45;99238.75;5476610;32;35152;-86
2022/04/22 15:12:58;;;;;;;13.48;10.70;;;;;;;12.43;51.72;99232.00;5465338;32;34046;-87
2022/04/22 15:16:01;;;;;;;11.52;10.32;;;;;;;12.43;51.45;99224.03;5483796;32;34508;-87
